Selma, Louisiana
Current Conditions -  °F | °C
As of 10:53 PM on Sunday 19 Oct 2014 (Local Time) from KESF Reporting Station
Few Clouds Few Clouds  
Wind Chill: 52°   Ceiling: Unl
Heat Index: 52°   Visibility: 10mi
Dew Point: 50°   Wind: 0mph
Humidity: 93%   Direction: NA
Pressure: 30.09"   Gusts: NA
Location:  31.7323°N, 92.4245°W
Report Text: KESF 200353Z AUTO 00000KT 10SM FEW001 11/10 A3009 RMK AO2 SLP187 T01110100
Loading
Personal Weather Stations






























Interactive Weather Map
Tropical Storm Tracking
New forecast layout! Learn more

10-Day Weather Forecast

Advertisements
Track Severe Weather on mobile